Amazon Brilliance — C6CK8 — position and weather

sailwx.info

Track history (hours):
 
Tides and Currents Weather Stations Pressure Air Temp Water Temp Dewpoint Dewpoint Depression Visibility Wind Speed Wind Dir Waves Ship Positions

Amazon Brilliance

Last reported at 2017-Dec-13 08:06 UTC. Time now 2018-Jan-22 00:20 UTC.
Position N 40°38' W 074°12'.
Warning: this ship's position is 39 days out of date.

Length 227 m; draft 11.4 m.

Type: Ship. MMSI: 311000500.

Date/timePositionNaut miles runAvg speedWind from/ knotsBaromVisibWave heightAir tempDewpointWater temp
2017-Dec-13 08:06N 40°38' W 074°12'0 4.5
2017-Dec-13 08:00N 40°39' W 074°11'3 6.8
2017-Dec-13 07:30N 40°39' W 074°07'3 5.4
2017-Dec-13 07:00N 40°38' W 074°03'4 8.5
2017-Dec-13 06:30N 40°34' W 074°02'611.5
2017-Dec-13 05:59N 40°30' W 073°56'5 9.5
2017-Dec-13 05:30N 40°28' W 073°51'  
2017-Dec-03 12:49N 40°38' W 074°12'0 0.0
2017-Dec-03 12:30N 40°38' W 074°12'1 2.0
2017-Dec-03 12:00N 40°39' W 074°11'2 4.5
2017-Dec-03 11:30N 40°39' W 074°08'3 5.4
2017-Dec-03 11:00N 40°39' W 074°05'3 6.0
2017-Dec-03 10:30N 40°37' W 074°03'5 9.2
2017-Dec-03 10:00N 40°32' W 074°01'510.5
2017-Dec-03 09:30N 40°30' W 073°55'4 8.8
2017-Dec-03 09:00N 40°27' W 073°50'  
Track history (hours):
 
Tides and Currents Weather Stations Pressure Air Temp Water Temp Dewpoint Dewpoint Depression Visibility Wind Speed Wind Dir Waves Ship Positions

Amazon Brilliance

Last reported at 2017-Dec-13 08:06 UTC. Time now 2018-Jan-22 00:20 UTC.
Position N 40°38' W 074°12'.
Warning: this ship's position is 39 days out of date.

Length 227 m; draft 11.4 m.

Type: Ship. MMSI: 311000500.

Date/timePositionNaut miles runAvg speedWind from/ knotsBaromVisibWave heightAir tempDewpointWater temp
2017-Dec-13 08:06N 40°38' W 074°12'0 4.5
2017-Dec-13 08:00N 40°39' W 074°11'3 6.8
2017-Dec-13 07:30N 40°39' W 074°07'3 5.4
2017-Dec-13 07:00N 40°38' W 074°03'4 8.5
2017-Dec-13 06:30N 40°34' W 074°02'611.5
2017-Dec-13 05:59N 40°30' W 073°56'5 9.5
2017-Dec-13 05:30N 40°28' W 073°51'  
2017-Dec-03 12:49N 40°38' W 074°12'0 0.0
2017-Dec-03 12:30N 40°38' W 074°12'1 2.0
2017-Dec-03 12:00N 40°39' W 074°11'2 4.5
2017-Dec-03 11:30N 40°39' W 074°08'3 5.4
2017-Dec-03 11:00N 40°39' W 074°05'3 6.0
2017-Dec-03 10:30N 40°37' W 074°03'5 9.2
2017-Dec-03 10:00N 40°32' W 074°01'510.5
2017-Dec-03 09:30N 40°30' W 073°55'4 8.8
2017-Dec-03 09:00N 40°27' W 073°50'  

Dump ship's entire track history